Private Wetterstation Wechselburg
Wetterdaten: Woche 14.08.23 - 20.08.23 (KW33)
Datum Zeit Temp. +2m Bodentemp. Temp.+5cm Temp. Wind Windchill X Diff Temp. Feuchte +2m Feuchte +5cm Luftdruck Regen Wind Richtung Sonnenschein Taupunkt Windchill Windben
14.08.2023 00:00 19,5 C 20,4 C 19,0 C 27,1 C 27,1 C 7,6 C 87 % 90 % 1014,7 hPa 0,0 l/m 0,0 km/h (0 Bft) - - 0,00 h 17,2 C 27,1 C 0,0 km/h (0 Bft)
14.08.2023 01:00 18,9 C 20,4 C 18,3 C 27,1 C 27,1 C 8,2 C 87 % 90 % 1014,9 hPa 0,0 l/m 0,0 km/h (0 Bft) - - 0,00 h 16,7 C 27,1 C 0,0 km/h (0 Bft)
14.08.2023 02:00 18,0 C 20,3 C 17,2 C 27,1 C 27,1 C 9,1 C 87 % 90 % 1014,7 hPa 0,0 l/m 0,0 km/h (0 Bft) - - 0,00 h 15,8 C 27,1 C 0,0 km/h (0 Bft)
14.08.2023 03:00 17,1 C 20,2 C 16,5 C 27,1 C 27,1 C 10,0 C 87 % 90 % 1014,8 hPa 0,0 l/m 0,0 km/h (0 Bft) - - 0,00 h 14,9 C 27,1 C 0,0 km/h (0 Bft)
14.08.2023 04:00 16,1 C 20,0 C 15,6 C 27,1 C 27,1 C 11,0 C 88 % 90 % 1014,4 hPa 0,0 l/m 0,0 km/h (0 Bft) - - 0,00 h 14,1 C 27,1 C 0,0 km/h (0 Bft)
14.08.2023 05:00 15,5 C 19,9 C 15,2 C 27,1 C 27,1 C 11,6 C 88 % 90 % 1014,4 hPa 0,0 l/m 0,0 km/h (0 Bft) - - 0,00 h 13,5 C 27,1 C 0,0 km/h (0 Bft)
14.08.2023 06:00 15,1 C 19,7 C 15,2 C 27,1 C 27,1 C 12,0 C 88 % 90 % 1014,8 hPa 0,0 l/m 0,0 km/h (0 Bft) - - 0,83 h 13,1 C 27,1 C 0,0 km/h (0 Bft)
14.08.2023 07:00 15,5 C 19,7 C 16,8 C 27,1 C 27,1 C 11,6 C 88 % 90 % 1014,6 hPa 0,0 l/m 0,0 km/h (0 Bft) - - 1,00 h 13,5 C 27,1 C 0,0 km/h (0 Bft)
14.08.2023 08:00 17,9 C 19,5 C 18,9 C 27,1 C 27,1 C 9,2 C 88 % 90 % 1014,1 hPa 0,0 l/m 0,0 km/h (0 Bft) - - 1,00 h 15,9 C 27,1 C 0,0 km/h (0 Bft)
14.08.2023 09:00 24,2 C 19,3 C 22,9 C 27,1 C 27,1 C 2,9 C 77 % 81 % 1013,8 hPa 0,0 l/m 0,0 km/h (0 Bft) - - 0,42 h 19,9 C 27,1 C 0,0 km/h (0 Bft)
14.08.2023 10:00 26,0 C 19,2 C 24,4 C 27,1 C 27,1 C 1,1 C 70 % 76 % 1013,7 hPa 0,0 l/m 0,0 km/h (0 Bft) - - 0,00 h 20,2 C 27,1 C 0,0 km/h (0 Bft)
14.08.2023 11:00 27,4 C 19,3 C 24,9 C 27,3 C 27,1 C 0,1 C 66 % 76 % 1013,6 hPa 0,0 l/m 0,0 km/h (0 Bft) - - 0,00 h 20,4 C 27,1 C 0,0 km/h (0 Bft)
14.08.2023 12:00 28,5 C 19,5 C 26,5 C 28,0 C 27,1 C 0,0 C 64 % 73 % 1013,2 hPa 0,0 l/m 0,0 km/h (0 Bft) - - 0,00 h 21,0 C 27,1 C 0,0 km/h (0 Bft)
14.08.2023 13:00 29,7 C 19,7 C 28,0 C 28,8 C 27,1 C 0,0 C 61 % 69 % 1013,3 hPa 0,0 l/m 0,0 km/h (0 Bft) - - 0,00 h 21,4 C 27,1 C 0,0 km/h (0 Bft)
14.08.2023 14:00 30,1 C 20,0 C 29,4 C 29,1 C 27,1 C 0,0 C 60 % 65 % 1012,6 hPa 0,0 l/m 0,0 km/h (0 Bft) - - 0,00 h 21,4 C 27,1 C 0,0 km/h (0 Bft)
14.08.2023 15:00 30,9 C 20,2 C 30,1 C 29,6 C 27,1 C 0,0 C 58 % 63 % 1012,0 hPa 0,0 l/m 0,0 km/h (0 Bft) - - 0,00 h 21,6 C 27,1 C 0,0 km/h (0 Bft)
14.08.2023 16:00 31,6 C 20,5 C 30,0 C 30,1 C 27,1 C 0,0 C 55 % 62 % 1011,7 hPa 0,0 l/m 0,0 km/h (0 Bft) - - 0,00 h 21,4 C 27,1 C 0,0 km/h (0 Bft)
14.08.2023 17:00 32,5 C 20,7 C 30,3 C 30,7 C 27,1 C 0,0 C 49 % 60 % 1011,7 hPa 0,0 l/m 0,0 km/h (0 Bft) - - 0,00 h 20,5 C 27,1 C 0,0 km/h (0 Bft)
14.08.2023 18:00 29,3 C 20,9 C 27,1 C 28,6 C 27,1 C 0,1 C 58 % 66 % 1012,0 hPa 0,0 l/m 0,0 km/h (0 Bft) - - 0,00 h 20,1 C 27,1 C 0,0 km/h (0 Bft)
14.08.2023 19:00 25,6 C 21,1 C 25,0 C 27,1 C 27,1 C 1,5 C 72 % 75 % 1012,5 hPa 0,0 l/m 0,0 km/h (0 Bft) - - 0,50 h 20,1 C 27,1 C 0,0 km/h (0 Bft)
14.08.2023 20:00 24,5 C 21,1 C 23,7 C 27,1 C 27,1 C 2,6 C 75 % 77 % 1012,7 hPa 0,0 l/m 0,0 km/h (0 Bft) - - 0,42 h 19,7 C 27,1 C 0,0 km/h (0 Bft)
14.08.2023 21:00 23,1 C 21,3 C 22,1 C 27,1 C 27,1 C 4,0 C 78 % 81 % 1012,6 hPa 0,0 l/m 0,0 km/h (0 Bft) - - 0,00 h 19,1 C 27,1 C 0,0 km/h (0 Bft)
14.08.2023 22:00 22,0 C 21,4 C 21,3 C 27,1 C 27,1 C 5,1 C 81 % 84 % 1012,5 hPa 0,0 l/m 0,0 km/h (0 Bft) - - 0,00 h 18,6 C 27,1 C 0,0 km/h (0 Bft)
14.08.2023 23:00 21,7 C 21,4 C 21,2 C 27,1 C 27,1 C 5,4 C 83 % 85 % 1012,0 hPa 0,0 l/m 0,0 km/h (0 Bft) - - 0,00 h 18,7 C 27,1 C 0,0 km/h (0 Bft)
15.08.2023 00:00 21,9 C 21,2 C 21,7 C 27,1 C 27,1 C 5,2 C 83 % 83 % 1012,6 hPa 0,0 l/m 0,0 km/h (0 Bft) - - 0,00 h 19,0 C 27,1 C 0,0 km/h (0 Bft)
15.08.2023 01:00 21,0 C 21,2 C 20,5 C 27,1 C 27,1 C 6,1 C 82 % 83 % 1013,4 hPa 0,0 l/m 0,0 km/h (0 Bft) - - 0,00 h 17,9 C 27,1 C 0,0 km/h (0 Bft)
15.08.2023 02:00 19,7 C 21,3 C 19,1 C 27,1 C 27,1 C 7,4 C 85 % 88 % 1013,3 hPa 0,0 l/m 0,0 km/h (0 Bft) - - 0,00 h 17,1 C 27,1 C 0,0 km/h (0 Bft)
15.08.2023 03:00 18,9 C 21,3 C 18,5 C 27,1 C 27,1 C 8,2 C 87 % 90 % 1012,9 hPa 0,0 l/m 0,0 km/h (0 Bft) - - 0,00 h 16,6 C 27,1 C 0,0 km/h (0 Bft)
15.08.2023 04:00 18,6 C 21,2 C 18,4 C 27,1 C 27,1 C 8,5 C 87 % 90 % 1012,3 hPa 0,0 l/m 0,0 km/h (0 Bft) - - 0,00 h 16,4 C 27,1 C 0,0 km/h (0 Bft)
15.08.2023 05:00 18,3 C 21,1 C 18,1 C 27,1 C 27,1 C 8,8 C 87 % 90 % 1011,9 hPa 0,0 l/m 0,0 km/h (0 Bft) - - 0,00 h 16,1 C 27,1 C 0,0 km/h (0 Bft)
15.08.2023 06:00 18,0 C 21,0 C 18,2 C 27,1 C 27,1 C 9,1 C 88 % 90 % 1011,8 hPa 0,0 l/m 0,0 km/h (0 Bft) - - 0,83 h 16,0 C 27,1 C 0,0 km/h (0 Bft)
15.08.2023 07:00 18,3 C 20,9 C 19,3 C 27,1 C 27,1 C 8,8 C 88 % 90 % 1011,9 hPa 0,0 l/m 0,0 km/h (0 Bft) - - 1,00 h 16,2 C 27,1 C 0,0 km/h (0 Bft)
15.08.2023 08:00 21,8 C 20,6 C 20,9 C 27,1 C 27,1 C 5,3 C 87 % 90 % 1012,2 hPa 0,0 l/m 0,0 km/h (0 Bft) - - 0,83 h 19,6 C 27,1 C 0,0 km/h (0 Bft)
15.08.2023 09:00 27,1 C 20,5 C 23,0 C 27,4 C 27,1 C 0,4 C 76 % 89 % 1012,4 hPa 0,0 l/m 0,0 km/h (0 Bft) - - 0,00 h 22,5 C 27,1 C 0,0 km/h (0 Bft)
15.08.2023 10:00 28,4 C 20,5 C 25,5 C 27,9 C 27,1 C 0,0 C 71 % 84 % 1012,8 hPa 0,0 l/m 0,0 km/h (0 Bft) - - 0,00 h 22,5 C 27,1 C 0,0 km/h (0 Bft)
15.08.2023 11:00 28,8 C 20,5 C 26,4 C 28,2 C 27,1 C 0,0 C 67 % 79 % 1012,8 hPa 0,0 l/m 0,0 km/h (0 Bft) - - 0,00 h 22,0 C 27,1 C 0,0 km/h (0 Bft)
15.08.2023 12:00 29,2 C 20,8 C 27,3 C 28,5 C 27,1 C 0,0 C 67 % 76 % 1012,5 hPa 0,0 l/m 0,0 km/h (0 Bft) - - 0,00 h 22,4 C 27,1 C 0,0 km/h (0 Bft)
15.08.2023 13:00 27,9 C 20,9 C 26,2 C 27,6 C 27,1 C 0,0 C 69 % 78 % 1012,8 hPa 0,0 l/m 0,0 km/h (0 Bft) - - 0,00 h 21,8 C 27,1 C 0,0 km/h (0 Bft)
15.08.2023 14:00 27,9 C 21,0 C 27,1 C 27,6 C 27,1 C 0,0 C 71 % 76 % 1012,8 hPa 0,0 l/m 0,0 km/h (0 Bft) - - 0,00 h 22,1 C 27,1 C 0,0 km/h (0 Bft)
15.08.2023 15:00 29,3 C 21,1 C 27,9 C 28,6 C 27,1 C 0,0 C 63 % 69 % 1012,4 hPa 0,0 l/m 0,0 km/h (0 Bft) - - 0,00 h 21,6 C 27,1 C 0,0 km/h (0 Bft)
15.08.2023 16:00 28,2 C 21,3 C 25,7 C 27,8 C 27,1 C 0,0 C 66 % 77 % 1011,9 hPa 0,0 l/m 0,0 km/h (0 Bft) - - 0,00 h 21,3 C 27,1 C 0,0 km/h (0 Bft)
15.08.2023 17:00 25,7 C 21,8 C 23,4 C 27,1 C 27,1 C 1,4 C 76 % 87 % 1012,8 hPa 0,7 l/m 0,0 km/h (0 Bft) - - 0,00 h 21,1 C 27,1 C 0,0 km/h (0 Bft)
15.08.2023 18:00 23,7 C 21,9 C 22,5 C 27,1 C 27,1 C 3,4 C 84 % 90 % 1013,4 hPa 0,0 l/m 0,0 km/h (0 Bft) - - 0,75 h 20,8 C 27,1 C 0,0 km/h (0 Bft)
15.08.2023 19:00 23,8 C 21,9 C 23,0 C 27,1 C 27,1 C 3,3 C 87 % 90 % 1013,0 hPa 0,0 l/m 0,0 km/h (0 Bft) - - 1,00 h 21,5 C 27,1 C 0,0 km/h (0 Bft)
15.08.2023 20:00 23,2 C 21,9 C 22,3 C 27,1 C 27,1 C 3,9 C 87 % 90 % 1013,1 hPa 0,0 l/m 0,0 km/h (0 Bft) - - 0,33 h 21,0 C 27,1 C 0,0 km/h (0 Bft)
15.08.2023 21:00 22,1 C 22,0 C 21,3 C 27,1 C 27,1 C 5,0 C 87 % 90 % 1013,4 hPa 0,0 l/m 0,0 km/h (0 Bft) - - 0,00 h 19,9 C 27,1 C 0,0 km/h (0 Bft)
15.08.2023 22:00 20,9 C 21,9 C 20,5 C 27,1 C 27,1 C 6,2 C 88 % 90 % 1013,7 hPa 0,0 l/m 0,0 km/h (0 Bft) - - 0,00 h 18,8 C 27,1 C 0,0 km/h (0 Bft)
15.08.2023 23:00 20,3 C 21,8 C 20,2 C 27,1 C 27,1 C 6,8 C 88 % 90 % 1013,9 hPa 0,0 l/m 0,0 km/h (0 Bft) - - 0,00 h 18,2 C 27,1 C 0,0 km/h (0 Bft)
16.08.2023 00:00 19,9 C 21,7 C 20,1 C 27,1 C 27,1 C 7,2 C 88 % 90 % 1014,4 hPa 0,0 l/m 0,0 km/h (0 Bft) - - 0,00 h 17,8 C 27,1 C 0,0 km/h (0 Bft)
16.08.2023 01:00 19,6 C 21,6 C 20,2 C 27,1 C 27,1 C 7,5 C 88 % 90 % 1014,7 hPa 0,0 l/m 0,0 km/h (0 Bft) - - 0,00 h 17,6 C 27,1 C 0,0 km/h (0 Bft)
16.08.2023 02:00 19,4 C 21,5 C 20,0 C 27,1 C 27,1 C 7,7 C 88 % 90 % 1014,3 hPa 0,0 l/m 0,0 km/h (0 Bft) - - 0,00 h 17,4 C 27,1 C 0,0 km/h (0 Bft)
16.08.2023 03:00 19,2 C 21,5 C 20,0 C 27,1 C 27,1 C 7,9 C 88 % 90 % 1014,4 hPa 0,0 l/m 0,0 km/h (0 Bft) - - 0,00 h 17,2 C 27,1 C 0,0 km/h (0 Bft)
16.08.2023 04:00 19,2 C 21,4 C 19,9 C 27,1 C 27,1 C 7,9 C 88 % 90 % 1014,4 hPa 0,0 l/m 0,0 km/h (0 Bft) - - 0,00 h 17,1 C 27,1 C 0,0 km/h (0 Bft)
16.08.2023 05:00 19,0 C 21,3 C 19,8 C 27,1 C 27,1 C 8,1 C 88 % 90 % 1014,4 hPa 0,0 l/m 0,0 km/h (0 Bft) - - 0,00 h 17,0 C 27,1 C 0,0 km/h (0 Bft)
16.08.2023 06:00 18,8 C 21,2 C 19,7 C 27,1 C 27,1 C 8,3 C 88 % 90 % 1014,9 hPa 0,0 l/m 0,0 km/h (0 Bft) - - 0,83 h 16,8 C 27,1 C 0,0 km/h (0 Bft)
16.08.2023 07:00 18,9 C 21,2 C 20,0 C 27,1 C 27,1 C 8,3 C 88 % 90 % 1015,2 hPa 0,0 l/m 0,0 km/h (0 Bft) - - 1,00 h 16,8 C 27,1 C 0,0 km/h (0 Bft)
16.08.2023 08:00 19,1 C 21,2 C 20,3 C 27,1 C 27,1 C 8,0 C 88 % 90 % 1015,7 hPa 0,0 l/m 0,0 km/h (0 Bft) - - 1,00 h 17,0 C 27,1 C 0,0 km/h (0 Bft)
16.08.2023 09:00 20,0 C 21,2 C 21,1 C 27,1 C 27,1 C 7,1 C 88 % 90 % 1016,1 hPa 0,0 l/m 0,0 km/h (0 Bft) - - 1,00 h 17,9 C 27,1 C 0,0 km/h (0 Bft)
16.08.2023 10:00 22,2 C 21,0 C 21,8 C 27,1 C 27,1 C 4,9 C 86 % 87 % 1016,3 hPa 0,0 l/m 0,0 km/h (0 Bft) - - 1,00 h 19,8 C 27,1 C 0,0 km/h (0 Bft)
16.08.2023 11:00 23,3 C 20,9 C 22,4 C 27,1 C 27,1 C 3,8 C 83 % 86 % 1016,6 hPa 0,0 l/m 0,0 km/h (0 Bft) - - 1,00 h 20,1 C 27,1 C 0,0 km/h (0 Bft)
16.08.2023 12:00 24,4 C 20,9 C 23,7 C 27,1 C 27,1 C 2,7 C 78 % 80 % 1016,3 hPa 0,0 l/m 0,0 km/h (0 Bft) - - 0,17 h 20,4 C 27,1 C 0,0 km/h (0 Bft)
16.08.2023 13:00 25,0 C 20,8 C 24,8 C 27,1 C 27,1 C 2,1 C 75 % 76 % 1016,0 hPa 0,0 l/m 0,0 km/h (0 Bft) - - 0,00 h 20,3 C 27,1 C 0,0 km/h (0 Bft)
16.08.2023 14:00 25,7 C 20,9 C 25,1 C 27,1 C 27,1 C 1,4 C 75 % 77 % 1015,9 hPa 0,0 l/m 0,0 km/h (0 Bft) - - 0,00 h 20,9 C 27,1 C 0,0 km/h (0 Bft)
16.08.2023 15:00 25,9 C 21,0 C 25,4 C 27,1 C 27,1 C 1,2 C 73 % 75 % 1015,6 hPa 0,0 l/m 0,0 km/h (0 Bft) - - 0,00 h 20,7 C 27,1 C 0,0 km/h (0 Bft)
16.08.2023 16:00 26,4 C 21,1 C 26,0 C 27,1 C 27,1 C 0,7 C 71 % 72 % 1015,2 hPa 0,0 l/m 0,0 km/h (0 Bft) - - 0,00 h 20,7 C 27,1 C 0,0 km/h (0 Bft)
16.08.2023 17:00 26,6 C 21,1 C 26,2 C 27,1 C 27,1 C 0,5 C 69 % 70 % 1015,1 hPa 0,0 l/m 0,0 km/h (0 Bft) - - 0,00 h 20,4 C 27,1 C 0,0 km/h (0 Bft)
16.08.2023 18:00 26,6 C 21,2 C 25,6 C 27,1 C 27,1 C 0,5 C 69 % 71 % 1014,8 hPa 0,0 l/m 0,0 km/h (0 Bft) - - 0,00 h 20,3 C 27,1 C 0,0 km/h (0 Bft)
16.08.2023 19:00 25,6 C 21,3 C 24,3 C 27,1 C 27,1 C 1,6 C 72 % 78 % 1015,0 hPa 0,0 l/m 0,0 km/h (0 Bft) - - 0,58 h 20,2 C 27,1 C 0,0 km/h (0 Bft)
16.08.2023 20:00 24,4 C 21,5 C 23,0 C 27,1 C 27,1 C 2,7 C 76 % 82 % 1015,4 hPa 0,0 l/m 0,0 km/h (0 Bft) - - 0,27 h 19,9 C 27,1 C 0,0 km/h (0 Bft)
16.08.2023 21:00 23,3 C 21,5 C 22,2 C 27,1 C 27,1 C 3,8 C 81 % 85 % 1015,6 hPa 0,0 l/m 0,0 km/h (0 Bft) - - 0,00 h 19,7 C 27,1 C 0,0 km/h (0 Bft)
16.08.2023 22:00 22,0 C 21,8 C 20,9 C 27,1 C 27,1 C 5,1 C 83 % 89 % 1014,7 hPa 0,0 l/m 0,0 km/h (0 Bft) - - 0,00 h 19,0 C 27,1 C 0,0 km/h (0 Bft)
16.08.2023 23:00 21,1 C 21,7 C 20,5 C 27,1 C 27,1 C 6,0 C 85 % 90 % 1014,4 hPa 0,0 l/m 0,0 km/h (0 Bft) - - 0,00 h 18,6 C 27,1 C 0,0 km/h (0 Bft)
17.08.2023 00:00 20,3 C 21,7 C 19,6 C 27,1 C 27,1 C 6,8 C 86 % 90 % 1014,5 hPa 0,0 l/m 0,0 km/h (0 Bft) - - 0,00 h 17,9 C 27,1 C 0,0 km/h (0 Bft)
17.08.2023 01:00 19,6 C 21,6 C 19,2 C 27,1 C 27,1 C 7,5 C 87 % 90 % 1014,6 hPa 0,0 l/m 0,0 km/h (0 Bft) - - 0,00 h 17,4 C 27,1 C 0,0 km/h (0 Bft)
17.08.2023 02:00 18,9 C 21,5 C 18,7 C 27,1 C 27,1 C 8,2 C 88 % 90 % 1014,1 hPa 0,0 l/m 0,0 km/h (0 Bft) - - 0,00 h 16,9 C 27,1 C 0,0 km/h (0 Bft)
17.08.2023 03:00 18,4 C 21,4 C 18,4 C 27,1 C 27,1 C 8,7 C 88 % 90 % 1013,3 hPa 0,0 l/m 0,0 km/h (0 Bft) - - 0,00 h 16,4 C 27,1 C 0,0 km/h (0 Bft)
17.08.2023 04:00 18,0 C 21,3 C 18,3 C 27,1 C 27,1 C 9,1 C 88 % 90 % 1013,8 hPa 0,0 l/m 0,0 km/h (0 Bft) - - 0,00 h 15,9 C 27,1 C 0,0 km/h (0 Bft)
17.08.2023 05:00 18,1 C 21,2 C 19,4 C 27,1 C 27,1 C 9,0 C 88 % 90 % 1014,4 hPa 0,0 l/m 0,0 km/h (0 Bft) - - 0,00 h 16,1 C 27,1 C 0,0 km/h (0 Bft)
17.08.2023 06:00 18,7 C 21,0 C 19,6 C 27,1 C 27,1 C 8,4 C 88 % 87 % 1015,1 hPa 0,0 l/m 0,0 km/h (0 Bft) - - 0,83 h 16,7 C 27,1 C 0,0 km/h (0 Bft)
17.08.2023 07:00 19,5 C 20,9 C 19,8 C 27,1 C 27,1 C 7,7 C 88 % 85 % 1014,9 hPa 0,0 l/m 0,0 km/h (0 Bft) - - 1,00 h 17,4 C 27,1 C 0,0 km/h (0 Bft)
17.08.2023 08:00 20,6 C 20,9 C 20,4 C 27,1 C 27,1 C 6,5 C 86 % 86 % 1014,4 hPa 0,0 l/m 0,0 km/h (0 Bft) - - 1,00 h 18,2 C 27,1 C 0,0 km/h (0 Bft)
17.08.2023 09:00 21,3 C 20,9 C 21,5 C 27,1 C 27,1 C 5,8 C 86 % 86 % 1014,1 hPa 0,0 l/m 0,0 km/h (0 Bft) - - 1,00 h 18,8 C 27,1 C 0,0 km/h (0 Bft)
17.08.2023 10:00 22,7 C 20,7 C 22,6 C 27,1 C 27,1 C 4,4 C 83 % 83 % 1013,8 hPa 0,0 l/m 0,0 km/h (0 Bft) - - 1,00 h 19,7 C 27,1 C 0,0 km/h (0 Bft)
17.08.2023 11:00 23,9 C 20,7 C 23,7 C 27,1 C 27,1 C 3,2 C 80 % 80 % 1013,8 hPa 0,0 l/m 0,0 km/h (0 Bft) - - 0,58 h 20,2 C 27,1 C 0,0 km/h (0 Bft)
17.08.2023 12:00 26,2 C 20,7 C 25,7 C 27,2 C 27,1 C 1,0 C 75 % 75 % 1013,4 hPa 0,0 l/m 0,0 km/h (0 Bft) - - 0,00 h 21,4 C 27,1 C 0,0 km/h (0 Bft)
17.08.2023 13:00 28,2 C 20,8 C 26,8 C 27,9 C 27,1 C 0,0 C 67 % 71 % 1013,2 hPa 0,0 l/m 0,0 km/h (0 Bft) - - 0,00 h 21,4 C 27,1 C 0,0 km/h (0 Bft)
17.08.2023 14:00 29,1 C 20,9 C 28,7 C 28,4 C 27,1 C 0,0 C 64 % 66 % 1013,0 hPa 0,0 l/m 0,0 km/h (0 Bft) - - 0,00 h 21,6 C 27,1 C 0,0 km/h (0 Bft)
17.08.2023 15:00 28,6 C 21,1 C 27,5 C 28,1 C 27,1 C 0,0 C 64 % 68 % 1012,7 hPa 0,0 l/m 0,0 km/h (0 Bft) - - 0,00 h 21,2 C 27,1 C 0,0 km/h (0 Bft)
17.08.2023 16:00 28,3 C 21,3 C 26,9 C 27,9 C 27,1 C 0,0 C 63 % 66 % 1012,4 hPa 0,0 l/m 0,0 km/h (0 Bft) - - 0,00 h 20,5 C 27,1 C 0,0 km/h (0 Bft)
17.08.2023 17:00 26,6 C 21,4 C 24,9 C 27,1 C 27,1 C 0,5 C 62 % 66 % 1012,6 hPa 0,0 l/m 0,0 km/h (0 Bft) - - 0,00 h 18,5 C 27,1 C 0,0 km/h (0 Bft)
17.08.2023 18:00 25,0 C 21,5 C 23,7 C 27,1 C 27,1 C 2,1 C 70 % 74 % 1012,6 hPa 0,0 l/m 0,0 km/h (0 Bft) - - 0,17 h 19,1 C 27,1 C 0,0 km/h (0 Bft)
17.08.2023 19:00 23,7 C 21,5 C 22,4 C 27,1 C 27,1 C 3,4 C 74 % 80 % 1012,9 hPa 0,0 l/m 0,0 km/h (0 Bft) - - 1,00 h 18,9 C 27,1 C 0,0 km/h (0 Bft)
17.08.2023 20:00 22,2 C 21,8 C 20,9 C 27,1 C 27,1 C 4,9 C 80 % 87 % 1013,2 hPa 0,0 l/m 0,0 km/h (0 Bft) - - 0,33 h 18,6 C 27,1 C 0,0 km/h (0 Bft)
17.08.2023 21:00 21,0 C 21,8 C 20,4 C 27,1 C 27,1 C 6,1 C 84 % 89 % 1013,5 hPa 0,0 l/m 0,0 km/h (0 Bft) - - 0,00 h 18,1 C 27,1 C 0,0 km/h (0 Bft)
17.08.2023 22:00 20,7 C 21,7 C 20,5 C 27,1 C 27,1 C 6,4 C 86 % 90 % 1013,6 hPa 0,0 l/m 0,0 km/h (0 Bft) - - 0,00 h 18,3 C 27,1 C 0,0 km/h (0 Bft)
17.08.2023 23:00 20,4 C 21,7 C 20,0 C 27,1 C 27,1 C 6,7 C 86 % 90 % 1013,5 hPa 0,0 l/m 0,0 km/h (0 Bft) - - 0,00 h 18,0 C 27,1 C 0,0 km/h (0 Bft)
18.08.2023 00:00 20,0 C 21,7 C 19,5 C 27,1 C 27,1 C 7,1 C 87 % 90 % 1013,8 hPa 0,0 l/m 0,0 km/h (0 Bft) - - 0,00 h 17,8 C 27,1 C 0,0 km/h (0 Bft)
18.08.2023 01:00 19,2 C 21,7 C 18,6 C 27,1 C 27,1 C 7,9 C 87 % 90 % 1013,5 hPa 0,0 l/m 0,0 km/h (0 Bft) - - 0,00 h 17,0 C 27,1 C 0,0 km/h (0 Bft)
18.08.2023 02:00 18,7 C 21,6 C 18,8 C 27,1 C 27,1 C 8,4 C 88 % 90 % 1013,5 hPa 0,0 l/m 0,0 km/h (0 Bft) - - 0,00 h 16,7 C 27,1 C 0,0 km/h (0 Bft)
18.08.2023 03:00 18,7 C 21,5 C 18,9 C 27,1 C 27,1 C 8,4 C 88 % 90 % 1013,2 hPa 0,0 l/m 0,0 km/h (0 Bft) - - 0,00 h 16,6 C 27,1 C 0,0 km/h (0 Bft)
18.08.2023 04:00 18,6 C 21,4 C 19,4 C 27,1 C 27,1 C 8,5 C 88 % 90 % 1012,8 hPa 0,0 l/m 0,0 km/h (0 Bft) - - 0,00 h 16,6 C 27,1 C 0,0 km/h (0 Bft)
18.08.2023 05:00 18,7 C 21,4 C 19,6 C 27,1 C 27,1 C 8,4 C 88 % 90 % 1012,6 hPa 0,0 l/m 0,0 km/h (0 Bft) - - 0,00 h 16,7 C 27,1 C 0,0 km/h (0 Bft)
18.08.2023 06:00 18,8 C 21,2 C 19,8 C 27,1 C 27,1 C 8,3 C 88 % 90 % 1013,0 hPa 0,0 l/m 0,0 km/h (0 Bft) - - 0,73 h 16,8 C 27,1 C 0,0 km/h (0 Bft)
18.08.2023 07:00 18,9 C 21,2 C 20,0 C 27,1 C 27,1 C 8,2 C 88 % 90 % 1013,0 hPa 0,0 l/m 0,0 km/h (0 Bft) - - 1,00 h 16,8 C 27,1 C 0,0 km/h (0 Bft)
18.08.2023 08:00 19,4 C 21,1 C 20,6 C 27,1 C 27,1 C 7,7 C 88 % 89 % 1013,4 hPa 0,0 l/m 0,0 km/h (0 Bft) - - 1,00 h 17,4 C 27,1 C 0,0 km/h (0 Bft)
18.08.2023 09:00 20,9 C 21,0 C 21,6 C 27,1 C 27,1 C 6,2 C 88 % 87 % 1013,3 hPa 0,0 l/m 0,0 km/h (0 Bft) - - 1,00 h 18,8 C 27,1 C 0,0 km/h (0 Bft)
18.08.2023 10:00 22,8 C 20,8 C 22,6 C 27,1 C 27,1 C 4,3 C 85 % 85 % 1013,7 hPa 0,0 l/m 0,0 km/h (0 Bft) - - 1,00 h 20,1 C 27,1 C 0,0 km/h (0 Bft)
18.08.2023 11:00 23,9 C 20,8 C 23,2 C 27,1 C 27,1 C 3,2 C 81 % 83 % 1013,5 hPa 0,0 l/m 0,0 km/h (0 Bft) - - 0,42 h 20,4 C 27,1 C 0,0 km/h (0 Bft)
18.08.2023 12:00 25,7 C 20,8 C 24,4 C 27,1 C 27,1 C 1,4 C 76 % 80 % 1013,2 hPa 0,0 l/m 0,0 km/h (0 Bft) - - 0,00 h 21,2 C 27,1 C 0,0 km/h (0 Bft)
18.08.2023 13:00 28,1 C 20,8 C 25,2 C 27,8 C 27,1 C 0,0 C 69 % 77 % 1013,0 hPa 0,0 l/m 0,0 km/h (0 Bft) - - 0,00 h 21,9 C 27,1 C 0,0 km/h (0 Bft)
18.08.2023 14:00 29,8 C 20,9 C 28,0 C 28,9 C 27,1 C 0,0 C 63 % 71 % 1012,4 hPa 0,0 l/m 0,0 km/h (0 Bft) - - 0,00 h 22,0 C 27,1 C 0,0 km/h (0 Bft)
18.08.2023 15:00 29,0 C 21,1 C 28,1 C 28,4 C 27,1 C 0,0 C 64 % 68 % 1012,6 hPa 0,0 l/m 0,0 km/h (0 Bft) - - 0,00 h 21,5 C 27,1 C 0,0 km/h (0 Bft)
18.08.2023 16:00 29,0 C 21,3 C 27,9 C 28,3 C 27,1 C 0,0 C 64 % 68 % 1012,5 hPa 0,0 l/m 0,0 km/h (0 Bft) - - 0,00 h 21,4 C 27,1 C 0,0 km/h (0 Bft)
18.08.2023 17:00 29,8 C 21,5 C 28,2 C 28,9 C 27,1 C 0,0 C 60 % 68 % 1012,0 hPa 0,0 l/m 0,0 km/h (0 Bft) - - 0,00 h 21,2 C 27,1 C 0,0 km/h (0 Bft)
18.08.2023 18:00 29,4 C 21,6 C 27,5 C 28,7 C 27,1 C 0,0 C 59 % 66 % 1012,0 hPa 0,0 l/m 0,0 km/h (0 Bft) - - 0,00 h 20,5 C 27,1 C 0,0 km/h (0 Bft)
18.08.2023 19:00 27,4 C 21,8 C 25,8 C 27,3 C 27,1 C 0,0 C 64 % 71 % 1011,9 hPa 0,0 l/m 0,0 km/h (0 Bft) - - 0,00 h 20,0 C 27,1 C 0,0 km/h (0 Bft)
18.08.2023 20:00 25,7 C 21,9 C 23,9 C 27,1 C 27,1 C 1,4 C 69 % 76 % 1012,3 hPa 0,0 l/m 0,0 km/h (0 Bft) - - 0,18 h 19,5 C 27,1 C 0,0 km/h (0 Bft)
18.08.2023 21:00 23,6 C 22,1 C 22,0 C 27,1 C 27,1 C 3,5 C 75 % 81 % 1012,5 hPa 0,0 l/m 0,0 km/h (0 Bft) - - 0,00 h 19,0 C 27,1 C 0,0 km/h (0 Bft)
18.08.2023 22:00 21,9 C 22,2 C 20,8 C 27,1 C 27,1 C 5,2 C 81 % 85 % 1012,8 hPa 0,0 l/m 0,0 km/h (0 Bft) - - 0,00 h 18,5 C 27,1 C 0,0 km/h (0 Bft)
18.08.2023 23:00 20,8 C 22,3 C 19,9 C 27,1 C 27,1 C 6,3 C 84 % 89 % 1012,8 hPa 0,0 l/m 0,0 km/h (0 Bft) - - 0,00 h 17,9 C 27,1 C 0,0 km/h (0 Bft)
19.08.2023 00:00 19,9 C 22,3 C 19,1 C 27,1 C 27,1 C 7,2 C 85 % 90 % 1012,7 hPa 0,0 l/m 0,0 km/h (0 Bft) - - 0,00 h 17,4 C 27,1 C 0,0 km/h (0 Bft)
19.08.2023 01:00 19,1 C 22,2 C 18,4 C 27,1 C 27,1 C 8,0 C 86 % 90 % 1012,5 hPa 0,0 l/m 0,0 km/h (0 Bft) - - 0,00 h 16,7 C 27,1 C 0,0 km/h (0 Bft)
19.08.2023 02:00 18,4 C 22,2 C 17,9 C 27,1 C 27,1 C 8,7 C 87 % 90 % 1012,4 hPa 0,0 l/m 0,0 km/h (0 Bft) - - 0,00 h 16,2 C 27,1 C 0,0 km/h (0 Bft)
19.08.2023 03:00 17,7 C 22,2 C 17,4 C 27,1 C 27,1 C 9,4 C 88 % 90 % 1012,2 hPa 0,0 l/m 0,0 km/h (0 Bft) - - 0,00 h 15,6 C 27,1 C 0,0 km/h (0 Bft)
19.08.2023 04:00 17,1 C 22,2 C 16,9 C 27,1 C 27,1 C 10,0 C 88 % 90 % 1012,1 hPa 0,0 l/m 0,0 km/h (0 Bft) - - 0,00 h 15,1 C 27,1 C 0,0 km/h (0 Bft)
19.08.2023 05:00 16,5 C 22,0 C 16,4 C 27,1 C 27,1 C 10,6 C 88 % 90 % 1012,0 hPa 0,0 l/m 0,0 km/h (0 Bft) - - 0,00 h 14,6 C 27,1 C 0,0 km/h (0 Bft)
19.08.2023 06:00 16,1 C 21,3 C 16,3 C 27,1 C 27,1 C 11,0 C 88 % 90 % 1012,6 hPa 0,0 l/m 0,0 km/h (0 Bft) - - 0,75 h 14,1 C 27,1 C 0,0 km/h (0 Bft)
19.08.2023 07:00 16,5 C 21,2 C 17,9 C 27,1 C 27,1 C 10,6 C 88 % 90 % 1013,0 hPa 0,0 l/m 0,0 km/h (0 Bft) - - 1,00 h 14,5 C 27,1 C 0,0 km/h (0 Bft)
19.08.2023 08:00 18,8 C 21,2 C 19,4 C 27,1 C 27,1 C 8,3 C 88 % 90 % 1013,0 hPa 0,0 l/m 0,0 km/h (0 Bft) - - 1,00 h 16,8 C 27,1 C 0,0 km/h (0 Bft)
19.08.2023 09:00 23,7 C 21,2 C 21,0 C 27,1 C 27,1 C 3,4 C 83 % 90 % 1013,5 hPa 0,0 l/m 0,0 km/h (0 Bft) - - 0,42 h 20,6 C 27,1 C 0,0 km/h (0 Bft)
19.08.2023 10:00 25,8 C 21,2 C 23,2 C 27,1 C 27,1 C 1,3 C 73 % 83 % 1013,6 hPa 0,0 l/m 0,0 km/h (0 Bft) - - 0,00 h 20,5 C 27,1 C 0,0 km/h (0 Bft)
19.08.2023 11:00 27,4 C 21,2 C 25,1 C 27,4 C 27,1 C 0,1 C 66 % 77 % 1013,4 hPa 0,0 l/m 0,0 km/h (0 Bft) - - 0,00 h 20,5 C 27,1 C 0,0 km/h (0 Bft)
19.08.2023 12:00 30,0 C 21,2 C 27,2 C 29,1 C 27,1 C 0,0 C 58 % 69 % 1013,6 hPa 0,0 l/m 0,0 km/h (0 Bft) - - 0,00 h 20,9 C 27,1 C 0,0 km/h (0 Bft)
19.08.2023 13:00 33,6 C 21,2 C 28,3 C 31,4 C 27,1 C 0,0 C 49 % 68 % 1013,3 hPa 0,0 l/m 0,0 km/h (0 Bft) - - 0,00 h 21,4 C 27,1 C 0,0 km/h (0 Bft)
19.08.2023 14:00 34,1 C 21,2 C 31,1 C 31,8 C 27,1 C 0,0 C 44 % 59 % 1013,2 hPa 0,0 l/m 0,0 km/h (0 Bft) - - 0,00 h 20,1 C 27,1 C 0,0 km/h (0 Bft)
19.08.2023 15:00 33,4 C 21,2 C 31,7 C 31,3 C 27,1 C 0,0 C 42 % 51 % 1013,4 hPa 0,0 l/m 0,0 km/h (0 Bft) - - 0,00 h 18,6 C 27,1 C 0,0 km/h (0 Bft)
19.08.2023 16:00 33,7 C 21,2 C 31,3 C 31,5 C 27,1 C 0,0 C 41 % 52 % 1013,1 hPa 0,0 l/m 0,0 km/h (0 Bft) - - 0,00 h 18,5 C 27,1 C 0,0 km/h (0 Bft)
19.08.2023 17:00 33,6 C 21,2 C 31,0 C 31,5 C 27,1 C 0,0 C 42 % 52 % 1013,1 hPa 0,0 l/m 0,0 km/h (0 Bft) - - 0,00 h 18,8 C 27,1 C 0,0 km/h (0 Bft)
19.08.2023 18:00 32,9 C 21,2 C 29,5 C 31,0 C 27,1 C 0,0 C 43 % 56 % 1013,3 hPa 0,0 l/m 0,0 km/h (0 Bft) - - 0,00 h 18,6 C 27,1 C 0,0 km/h (0 Bft)
19.08.2023 19:00 31,0 C 21,2 C 28,3 C 29,7 C 27,1 C 0,0 C 53 % 65 % 1013,5 hPa 0,0 l/m 0,0 km/h (0 Bft) - - 0,00 h 20,1 C 27,1 C 0,0 km/h (0 Bft)
19.08.2023 20:00 28,3 C 21,2 C 25,5 C 27,9 C 27,1 C 0,1 C 61 % 72 % 1013,9 hPa 0,0 l/m 0,0 km/h (0 Bft) - - 0,00 h 20,0 C 27,1 C 0,0 km/h (0 Bft)
19.08.2023 21:00 25,3 C 21,2 C 23,4 C 27,1 C 27,1 C 1,8 C 69 % 77 % 1014,3 hPa 0,0 l/m 0,0 km/h (0 Bft) - - 0,00 h 19,2 C 27,1 C 0,0 km/h (0 Bft)
19.08.2023 22:00 23,6 C 21,6 C 22,8 C 27,1 C 27,1 C 3,5 C 76 % 80 % 1014,6 hPa 0,0 l/m 0,0 km/h (0 Bft) - - 0,00 h 19,2 C 27,1 C 0,0 km/h (0 Bft)
19.08.2023 23:00 22,6 C 22,7 C 21,9 C 27,1 C 27,1 C 4,5 C 79 % 82 % 1014,6 hPa 0,0 l/m 0,0 km/h (0 Bft) - - 0,00 h 18,8 C 27,1 C 0,0 km/h (0 Bft)
20.08.2023 00:00 22,0 C 22,6 C 21,7 C 27,1 C 27,1 C 5,1 C 82 % 83 % 1014,5 hPa 0,0 l/m 0,0 km/h (0 Bft) - - 0,00 h 18,8 C 27,1 C 0,0 km/h (0 Bft)
20.08.2023 01:00 21,9 C 22,5 C 21,7 C 27,1 C 27,1 C 5,2 C 83 % 83 % 1014,5 hPa 0,0 l/m 0,0 km/h (0 Bft) - - 0,00 h 18,9 C 27,1 C 0,0 km/h (0 Bft)
20.08.2023 02:00 21,9 C 22,4 C 21,9 C 27,1 C 27,1 C 5,2 C 84 % 84 % 1014,6 hPa 0,0 l/m 0,0 km/h (0 Bft) - - 0,00 h 19,1 C 27,1 C 0,0 km/h (0 Bft)
20.08.2023 03:00 22,4 C 22,3 C 22,5 C 27,1 C 27,1 C 4,7 C 84 % 83 % 1014,9 hPa 0,0 l/m 0,0 km/h (0 Bft) - - 0,00 h 19,6 C 27,1 C 0,0 km/h (0 Bft)
20.08.2023 04:00 23,0 C 22,3 C 22,9 C 27,1 C 27,1 C 4,1 C 83 % 84 % 1015,1 hPa 0,0 l/m 0,0 km/h (0 Bft) - - 0,00 h 20,0 C 27,1 C 0,0 km/h (0 Bft)
20.08.2023 05:00 22,7 C 22,4 C 22,3 C 27,1 C 27,1 C 4,4 C 84 % 85 % 1015,8 hPa 0,0 l/m 0,0 km/h (0 Bft) - - 0,00 h 19,9 C 27,1 C 0,0 km/h (0 Bft)
20.08.2023 06:00 22,5 C 22,4 C 22,1 C 27,1 C 27,1 C 4,6 C 84 % 86 % 1016,3 hPa 0,0 l/m 0,0 km/h (0 Bft) - - 0,75 h 19,7 C 27,1 C 0,0 km/h (0 Bft)
20.08.2023 07:00 22,3 C 22,5 C 21,7 C 27,1 C 27,1 C 4,8 C 85 % 87 % 1016,3 hPa 0,0 l/m 0,0 km/h (0 Bft) - - 1,00 h 19,7 C 27,1 C 0,0 km/h (0 Bft)
20.08.2023 08:00 23,0 C 22,4 C 22,5 C 27,1 C 27,1 C 4,1 C 86 % 88 % 1016,8 hPa 0,0 l/m 0,0 km/h (0 Bft) - - 1,00 h 20,5 C 27,1 C 0,0 km/h (0 Bft)
20.08.2023 09:00 23,8 C 22,2 C 23,5 C 27,1 C 27,1 C 3,3 C 83 % 84 % 1017,2 hPa 0,0 l/m 0,0 km/h (0 Bft) - - 0,50 h 20,8 C 27,1 C 0,0 km/h (0 Bft)
20.08.2023 10:00 24,3 C 22,1 C 23,9 C 27,1 C 27,1 C 2,8 C 81 % 82 % 1017,3 hPa 0,0 l/m 0,0 km/h (0 Bft) - - 0,00 h 20,7 C 27,1 C 0,0 km/h (0 Bft)
20.08.2023 11:00 24,8 C 22,1 C 24,3 C 27,1 C 27,1 C 2,3 C 79 % 80 % 1017,9 hPa 0,0 l/m 0,0 km/h (0 Bft) - - 0,00 h 20,8 C 27,1 C 0,0 km/h (0 Bft)
20.08.2023 12:00 26,0 C 22,1 C 25,3 C 27,1 C 27,1 C 1,2 C 75 % 77 % 1017,4 hPa 0,0 l/m 0,0 km/h (0 Bft) - - 0,00 h 21,1 C 27,1 C 0,0 km/h (0 Bft)
20.08.2023 13:00 28,7 C 22,0 C 26,1 C 32,7 C 32,5 C 4,1 C 68 % 76 % 1017,1 hPa 0,0 l/m 0,0 km/h (0 Bft) - - 0,83 h 22,2 C 32,5 C 0,0 km/h (0 Bft)
20.08.2023 14:00 29,4 C 22,1 C 28,2 C 34,3 C 34,3 C 4,9 C 64 % 72 % 1017,0 hPa 0,0 l/m 0,0 km/h (0 Bft) - - 1,00 h 21,9 C 34,3 C 0,0 km/h (0 Bft)
20.08.2023 15:00 29,5 C 22,2 C 28,9 C 34,3 C 34,3 C 4,8 C 63 % 68 % 1016,5 hPa 0,0 l/m 0,0 km/h (0 Bft) - - 1,00 h 21,6 C 34,3 C 0,0 km/h (0 Bft)
20.08.2023 16:00 29,8 C 22,2 C 28,9 C 34,3 C 34,3 C 4,5 C 62 % 67 % 1016,0 hPa 0,0 l/m 0,0 km/h (0 Bft) - - 1,00 h 21,7 C 34,3 C 0,0 km/h (0 Bft)
20.08.2023 17:00 29,8 C 22,5 C 29,0 C 34,3 C 34,3 C 4,5 C 63 % 66 % 1016,0 hPa 0,0 l/m 0,0 km/h (0 Bft) - - 1,00 h 21,9 C 34,3 C 0,0 km/h (0 Bft)
20.08.2023 18:00 29,5 C 22,6 C 28,2 C 34,3 C 34,3 C 4,8 C 63 % 67 % 1016,2 hPa 0,0 l/m 0,0 km/h (0 Bft) - - 1,00 h 21,7 C 34,3 C 0,0 km/h (0 Bft)
20.08.2023 19:00 28,3 C 22,7 C 27,1 C 34,3 C 34,3 C 6,0 C 66 % 70 % 1016,3 hPa 0,0 l/m 0,0 km/h (0 Bft) - - 1,00 h 21,3 C 34,3 C 0,0 km/h (0 Bft)
20.08.2023 20:00 26,9 C 22,9 C 25,7 C 34,3 C 34,3 C 7,4 C 69 % 73 % 1016,4 hPa 0,0 l/m 0,0 km/h (0 Bft) - - 0,17 h 20,8 C 34,3 C 0,0 km/h (0 Bft)
20.08.2023 21:00 25,1 C 22,9 C 23,9 C 34,3 C 34,3 C 9,2 C 74 % 79 % 1016,8 hPa 0,0 l/m 0,0 km/h (0 Bft) - - 0,00 h 20,2 C 34,3 C 0,0 km/h (0 Bft)
20.08.2023 22:00 23,6 C 23,0 C 22,7 C 24,6 C 24,2 C 1,1 C 79 % 83 % 1017,1 hPa 0,0 l/m 0,0 km/h (0 Bft) - - 0,00 h 19,8 C 24,2 C 0,0 km/h (0 Bft)
20.08.2023 23:00 22,5 C 23,1 C 21,8 C 22,9 C 22,9 C 0,4 C 83 % 86 % 1017,2 hPa 0,0 l/m 0,0 km/h (0 Bft) - - 0,00 h 19,4 C 22,9 C 0,0 km/h (0 Bft)
Min-Datum _ 14.08.23 14.08.23 14.08.23 20.08.23 20.08.23 14.08.23 19.08.23 19.08.23 14.08.23 - 14.08.23 - - 14.08.23 20.08.23 14.08.23
_ Min-Zeit 06:15 09:41 05:35 23:05 22:11 11:15 15:40 15:55 16:00 - 00:00 - - 06:15 22:11 00:00
Minimum _ 15,0 C 19,2 C 15,0 C 22,9 C 22,9 C 0,0 C 40 % 45 % 1011,5 hPa - 0,0 km/h (0 Bft) - - 13,0 C 22,9 C 0,0 km/h (0 Bft)
Max-Datum _ 19.08.23 20.08.23 19.08.23 20.08.23 20.08.23 14.08.23 19.08.23 14.08.23 20.08.23 15.08.23 14.08.23 - 16.08.23 15.08.23 20.08.23 14.08.23
_ Max-Zeit 13:30 23:25 14:41 13:10 13:10 06:15 07:45 00:00 11:00 17:40 00:00 - 06:31 09:15 13:10 00:00
Maximum _ 34,7 C 23,2 C 32,3 C 34,5 C 34,5 C 12,1 C 89 % 90 % 1018,2 hPa 0,7 l/m 0,0 km/h
- - (0 Bft)
- 0,33 h 23,1 C 34,5 C 0,0 km/h
- - (0 Bft)
Durchschnitt _ 23,6 C 21,3 C 22,8 C 27,8 C 27,4 C 4,5 C 77 % 81 % 1013,9 hPa #0,7 l/m 0,0 km/h (0 Bft) - - #41:26 h 19,0 C 27,4 C 0,0 km/h (0 Bft)
2023 www.wetterstation-wechselburg.de